createdAt,value
2022-09-13T00:02:23.860Z,3.90
2022-09-13T00:05:17.072Z,3.42
2022-09-13T00:08:10.147Z,3.60
2022-09-13T00:11:04.240Z,4.43
2022-09-13T00:13:58.381Z,3.88
2022-09-13T00:16:51.717Z,3.28
2022-09-13T00:19:44.816Z,3.70
2022-09-13T00:22:38.199Z,3.67
2022-09-13T00:25:32.912Z,3.70
2022-09-13T00:28:26.931Z,3.53
2022-09-13T00:31:20.680Z,4.20
2022-09-13T00:34:14.032Z,4.10
2022-09-13T00:37:06.570Z,3.95
2022-09-13T00:39:59.973Z,3.78
2022-09-13T00:42:52.615Z,3.33
2022-09-13T00:45:48.532Z,3.42
2022-09-13T00:48:42.512Z,3.38
2022-09-13T00:51:36.493Z,3.08
2022-09-13T00:54:36.032Z,3.75
2022-09-13T00:57:30.320Z,4.13
2022-09-13T01:00:24.268Z,3.13
2022-09-13T01:03:20.750Z,3.70
2022-09-13T01:06:18.676Z,3.90
2022-09-13T01:09:13.255Z,3.60
2022-09-13T01:12:10.329Z,3.35
2022-09-13T01:15:06.191Z,3.45
2022-09-13T01:17:59.347Z,4.03
2022-09-13T01:21:32.049Z,3.70
2022-09-13T01:24:53.845Z,3.85
2022-09-13T01:28:05.923Z,3.75
2022-09-13T01:31:08.338Z,3.20
2022-09-13T01:34:15.017Z,3.15
2022-09-13T01:37:31.109Z,3.08
2022-09-13T01:40:43.967Z,3.15
2022-09-13T01:43:50.867Z,3.33
2022-09-13T01:46:51.377Z,3.10
2022-09-13T01:49:50.692Z,2.95
2022-09-13T01:52:50.245Z,3.50
2022-09-13T01:55:49.124Z,2.95
2022-09-13T01:58:47.795Z,3.17
2022-09-13T02:01:46.904Z,3.20
2022-09-13T02:04:46.001Z,3.17
2022-09-13T02:07:43.268Z,3.30
2022-09-13T02:10:40.832Z,2.92
2022-09-13T02:13:38.947Z,3.33
2022-09-13T02:16:35.465Z,3.00
2022-09-13T02:19:35.068Z,3.28
2022-09-13T02:22:33.063Z,3.08
2022-09-13T02:25:29.327Z,2.90
2022-09-13T02:28:29.372Z,3.28
2022-09-13T02:31:29.533Z,2.97
2022-09-13T02:34:25.809Z,3.22
2022-09-13T02:37:20.267Z,2.78
2022-09-13T02:40:23.320Z,3.13
2022-09-13T02:43:21.334Z,3.25
2022-09-13T02:46:26.220Z,3.05
2022-09-13T02:49:27.391Z,3.38
2022-09-13T02:52:27.311Z,3.33
2022-09-13T02:55:26.941Z,3.20
2022-09-13T02:58:27.128Z,3.30
2022-09-13T03:01:21.797Z,3.00
2022-09-13T03:04:15.497Z,3.00
2022-09-13T03:07:12.081Z,3.15
2022-09-13T03:10:09.421Z,3.15
2022-09-13T03:13:30.211Z,3.30
2022-09-13T03:16:39.030Z,3.00
2022-09-13T03:19:47.725Z,2.33
2022-09-13T03:23:05.587Z,2.78
2022-09-13T03:26:18.743Z,2.97
2022-09-13T03:29:26.180Z,2.80
2022-09-13T03:32:30.210Z,3.08
2022-09-13T03:35:30.490Z,3.00
2022-09-13T03:38:32.360Z,2.90
2022-09-13T03:41:34.029Z,3.08
2022-09-13T03:44:30.653Z,2.97
2022-09-13T03:47:26.696Z,3.10
2022-09-13T03:50:22.884Z,3.47
2022-09-13T03:53:20.901Z,3.13
2022-09-13T03:56:15.380Z,2.83
2022-09-13T03:59:08.253Z,2.92
2022-09-13T04:02:02.506Z,2.67
2022-09-13T04:04:56.247Z,3.10
2022-09-13T04:07:48.824Z,2.78
2022-09-13T04:10:42.181Z,2.70
2022-09-13T04:13:34.916Z,2.95
2022-09-13T04:16:28.294Z,2.47
2022-09-13T04:19:22.594Z,2.50
2022-09-13T04:22:17.131Z,2.83
2022-09-13T04:25:10.764Z,3.22
2022-09-13T04:28:03.975Z,3.03
2022-09-13T04:30:57.294Z,2.92
2022-09-13T04:33:50.934Z,2.67
2022-09-13T04:36:46.077Z,3.20
2022-09-13T04:39:39.444Z,2.67
2022-09-13T04:42:33.265Z,2.92
2022-09-13T04:45:26.721Z,2.85
2022-09-13T04:48:20.453Z,2.90
2022-09-13T04:51:14.653Z,2.63
2022-09-13T04:54:15.281Z,2.65
2022-09-13T04:57:09.352Z,2.75
2022-09-13T05:00:02.164Z,3.15
2022-09-13T05:02:58.437Z,2.85
2022-09-13T05:05:50.977Z,3.10
2022-09-13T05:08:44.139Z,3.13
2022-09-13T05:11:38.418Z,2.85
2022-09-13T05:14:31.669Z,2.55
2022-09-13T05:17:25.128Z,3.13
2022-09-13T05:20:18.453Z,3.15
2022-09-13T05:23:11.464Z,3.10
2022-09-13T05:26:06.225Z,2.88
2022-09-13T05:29:01.004Z,2.72
2022-09-13T05:31:54.129Z,3.00
2022-09-13T05:34:47.941Z,2.85
2022-09-13T05:37:40.945Z,2.50
2022-09-13T05:40:34.229Z,2.65
2022-09-13T05:43:28.720Z,3.08
2022-09-13T05:46:24.235Z,3.00
2022-09-13T05:49:17.364Z,3.35
2022-09-13T05:52:10.440Z,3.05
2022-09-13T05:55:03.211Z,3.63
2022-09-13T05:57:56.405Z,3.13
2022-09-13T06:00:54.364Z,3.00
2022-09-13T06:03:50.502Z,3.45
2022-09-13T06:06:43.004Z,3.20
2022-09-13T06:09:36.565Z,3.40
2022-09-13T06:12:30.245Z,2.92
2022-09-13T06:15:26.428Z,3.03
2022-09-13T06:18:19.205Z,3.15
2022-09-13T06:21:18.278Z,2.72
2022-09-13T06:24:11.227Z,3.50
2022-09-13T06:27:04.271Z,3.42
2022-09-13T06:29:57.261Z,3.55
2022-09-13T06:32:50.344Z,3.55
2022-09-13T06:35:43.215Z,3.83
2022-09-13T06:38:37.664Z,3.78
2022-09-13T06:41:31.226Z,3.72
2022-09-13T06:44:24.519Z,3.97
2022-09-13T06:47:17.092Z,4.20
2022-09-13T06:50:11.214Z,3.70
2022-09-13T06:53:04.445Z,4.88
2022-09-13T06:56:07.901Z,3.95
2022-09-13T06:59:05.293Z,4.32
2022-09-13T07:01:58.303Z,4.68
2022-09-13T07:04:51.331Z,4.57
2022-09-13T07:07:44.266Z,4.43
2022-09-13T07:10:37.207Z,4.43
2022-09-13T07:13:31.479Z,5.05
2022-09-13T07:16:26.873Z,4.53
2022-09-13T07:19:22.752Z,4.15
2022-09-13T07:22:17.032Z,4.03
2022-09-13T07:25:11.018Z,4.97
2022-09-13T07:28:04.248Z,5.18
2022-09-13T07:31:05.442Z,4.40
2022-09-13T07:34:00.216Z,4.13
2022-09-13T07:36:53.765Z,5.05
2022-09-13T07:39:47.235Z,4.32
2022-09-13T07:42:40.732Z,4.68
2022-09-13T07:45:34.320Z,4.68
2022-09-13T07:48:33.376Z,4.25
2022-09-13T07:51:29.098Z,5.20
2022-09-13T07:54:22.522Z,4.78
2022-09-13T07:57:15.282Z,4.75
2022-09-13T08:00:12.411Z,4.97
2022-09-13T08:03:05.391Z,4.95
2022-09-13T08:05:59.527Z,4.80
2022-09-13T08:08:52.996Z,4.88
2022-09-13T08:11:48.501Z,4.90
2022-09-13T08:14:41.069Z,4.05
2022-09-13T08:17:34.406Z,5.57
2022-09-13T08:20:27.189Z,4.70
2022-09-13T08:23:21.906Z,4.93
2022-09-13T08:26:15.767Z,5.03
2022-09-13T08:29:10.017Z,4.60
2022-09-13T08:32:03.255Z,4.35
2022-09-13T08:34:56.130Z,4.25
2022-09-13T08:37:49.621Z,4.15
2022-09-13T08:40:48.647Z,4.38
2022-09-13T08:43:50.352Z,3.90
2022-09-13T08:46:46.768Z,4.20
2022-09-13T08:49:44.904Z,4.55
2022-09-13T08:52:48.602Z,4.47
2022-09-13T08:55:59.084Z,4.25
2022-09-13T08:59:04.855Z,4.18
2022-09-13T09:02:13.209Z,4.47
2022-09-13T09:05:16.014Z,3.90
2022-09-13T09:08:14.798Z,3.92
2022-09-13T09:11:16.324Z,4.10
2022-09-13T09:14:16.645Z,4.25
2022-09-13T09:17:15.916Z,3.75
2022-09-13T09:20:23.772Z,4.57
2022-09-13T09:23:21.797Z,3.83
2022-09-13T09:26:19.124Z,4.20
2022-09-13T09:29:22.924Z,4.10
2022-09-13T09:32:35.543Z,4.07
2022-09-13T09:35:37.839Z,4.07
2022-09-13T09:38:39.634Z,4.22
2022-09-13T09:41:35.439Z,4.60
2022-09-13T09:44:33.770Z,4.25
2022-09-13T09:47:30.225Z,4.30
2022-09-13T09:50:26.531Z,4.13
2022-09-13T09:53:25.310Z,3.97
2022-09-13T09:56:24.305Z,3.80
2022-09-13T09:59:28.693Z,4.10
2022-09-13T10:02:22.947Z,4.00
2022-09-13T10:05:20.787Z,4.18
2022-09-13T10:08:27.043Z,4.30
2022-09-13T10:11:22.935Z,4.47
2022-09-13T10:14:39.023Z,4.30
2022-09-13T10:17:32.818Z,4.35
2022-09-13T10:20:26.542Z,4.03
2022-09-13T10:23:21.956Z,4.55
2022-09-13T10:26:19.026Z,4.05
2022-09-13T10:29:17.638Z,4.00
2022-09-13T10:32:12.886Z,3.85
2022-09-13T10:35:17.891Z,4.20
2022-09-13T10:38:25.185Z,3.42
2022-09-13T10:41:24.336Z,3.42
2022-09-13T10:44:27.843Z,3.50
2022-09-13T10:47:26.094Z,4.07
2022-09-13T10:50:22.227Z,4.20
2022-09-13T10:53:34.421Z,3.50
2022-09-13T10:56:28.148Z,3.90
2022-09-13T10:59:24.838Z,3.65
2022-09-13T11:02:45.633Z,3.60
2022-09-13T11:05:46.308Z,3.80
2022-09-13T11:08:46.332Z,3.55
2022-09-13T11:11:46.028Z,3.67
2022-09-13T11:14:50.969Z,3.40
2022-09-13T11:18:03.703Z,3.30
2022-09-13T11:21:08.315Z,3.25
2022-09-13T11:24:30.036Z,3.20
2022-09-13T11:27:31.151Z,3.45
2022-09-13T11:30:29.793Z,3.80
2022-09-13T11:33:38.309Z,3.67
2022-09-13T11:36:58.025Z,3.30
2022-09-13T11:40:00.638Z,3.88
2022-09-13T11:43:01.097Z,3.30
2022-09-13T11:46:06.799Z,3.20
2022-09-13T11:49:20.929Z,3.28
2022-09-13T11:52:22.956Z,3.55
2022-09-13T11:55:19.998Z,2.92
2022-09-13T11:58:16.310Z,2.95
2022-09-13T12:01:14.193Z,3.45
2022-09-13T12:04:13.899Z,3.33
2022-09-13T12:07:15.419Z,3.05
2022-09-13T12:10:17.926Z,3.00
2022-09-13T12:13:17.720Z,3.00
2022-09-13T12:16:16.042Z,3.20
2022-09-13T12:19:16.912Z,3.00
2022-09-13T12:22:12.781Z,3.22
2022-09-13T12:25:12.552Z,3.08
2022-09-13T12:28:15.089Z,2.85
2022-09-13T12:31:12.447Z,3.00
2022-09-13T12:34:08.973Z,3.35
2022-09-13T12:37:16.582Z,3.85
2022-09-13T12:40:31.411Z,3.67
2022-09-13T12:43:49.935Z,3.90
2022-09-13T12:47:08.896Z,3.22
2022-09-13T12:50:43.882Z,3.42
2022-09-13T12:54:10.826Z,3.22
2022-09-13T12:57:17.454Z,3.28
2022-09-13T13:00:21.834Z,3.03
2022-09-13T13:03:19.436Z,2.67
2022-09-13T13:06:25.033Z,3.15
2022-09-13T13:09:32.111Z,3.22
2022-09-13T13:12:31.694Z,3.40
2022-09-13T13:16:01.001Z,2.72
2022-09-13T13:18:55.757Z,2.63
2022-09-13T13:21:49.817Z,3.00
2022-09-13T13:24:50.200Z,3.33
2022-09-13T13:27:48.523Z,3.40
2022-09-13T13:30:51.823Z,3.53
2022-09-13T13:33:49.916Z,2.83
2022-09-13T13:36:48.939Z,3.25
2022-09-13T13:39:44.673Z,3.13
2022-09-13T13:42:39.587Z,2.83
2022-09-13T13:45:32.762Z,3.10
2022-09-13T13:48:38.407Z,2.60
2022-09-13T13:51:31.759Z,3.30
2022-09-13T13:54:36.338Z,2.63
2022-09-13T13:57:33.164Z,2.85
2022-09-13T14:00:31.266Z,2.63
2022-09-13T14:03:35.087Z,2.67
2022-09-13T14:06:34.809Z,2.75
2022-09-13T14:09:38.123Z,2.60
2022-09-13T14:12:47.271Z,3.00
2022-09-13T14:15:51.360Z,2.95
2022-09-13T14:19:00.144Z,2.60
2022-09-13T14:22:16.098Z,2.80
2022-09-13T14:25:24.340Z,2.85
2022-09-13T14:28:21.701Z,2.95
2022-09-13T14:31:21.046Z,2.65
2022-09-13T14:34:22.717Z,2.45
2022-09-13T14:37:19.325Z,2.85
2022-09-13T14:40:19.245Z,2.40
2022-09-13T14:43:17.259Z,2.30
2022-09-13T14:46:15.720Z,2.72
2022-09-13T14:49:25.179Z,2.55
2022-09-13T14:52:27.413Z,2.45
2022-09-13T14:55:25.691Z,2.78
2022-09-13T14:58:21.834Z,3.00
2022-09-13T15:01:17.099Z,2.53
2022-09-13T15:04:12.301Z,2.67
2022-09-13T15:07:10.401Z,2.95
2022-09-13T15:10:20.529Z,2.78
2022-09-13T15:13:13.576Z,3.00
2022-09-13T15:16:26.026Z,2.67
2022-09-13T15:19:40.789Z,3.00
2022-09-13T15:22:34.751Z,3.00
2022-09-13T15:25:29.646Z,2.97
2022-09-13T15:28:26.214Z,2.80
2022-09-13T15:31:22.704Z,2.70
2022-09-13T15:34:24.901Z,2.70
2022-09-13T15:37:20.601Z,3.05
2022-09-13T15:40:23.994Z,3.08
2022-09-13T15:43:16.736Z,3.00
2022-09-13T15:46:13.333Z,2.60
2022-09-13T15:49:06.945Z,3.22
2022-09-13T15:52:01.636Z,2.97
2022-09-13T15:54:55.976Z,3.30
2022-09-13T15:57:49.451Z,3.45
2022-09-13T16:00:42.806Z,2.92
2022-09-13T16:03:35.862Z,3.00
2022-09-13T16:06:28.766Z,3.20
2022-09-13T16:09:24.490Z,3.45
2022-09-13T16:12:19.319Z,3.15
2022-09-13T16:15:13.589Z,2.75
2022-09-13T16:18:07.076Z,3.25
2022-09-13T16:21:00.668Z,2.85
2022-09-13T16:23:53.796Z,3.38
2022-09-13T16:26:46.642Z,2.80
2022-09-13T16:29:41.306Z,2.97
2022-09-13T16:32:35.104Z,2.67
2022-09-13T16:35:30.516Z,2.50
2022-09-13T16:38:23.475Z,3.28
2022-09-13T16:41:16.805Z,2.50
2022-09-13T16:44:10.117Z,2.60
2022-09-13T16:47:05.463Z,3.08
2022-09-13T16:49:59.378Z,3.60
2022-09-13T16:52:52.782Z,3.20
2022-09-13T16:55:46.278Z,2.67
2022-09-13T16:58:41.114Z,3.13
2022-09-13T17:01:35.013Z,3.17
2022-09-13T17:04:30.144Z,3.10
2022-09-13T17:07:24.146Z,2.78
2022-09-13T17:10:18.043Z,3.47
2022-09-13T17:13:10.987Z,3.22
2022-09-13T17:16:03.975Z,3.08
2022-09-13T17:18:58.874Z,3.65
2022-09-13T17:21:57.222Z,3.35
2022-09-13T17:24:51.139Z,3.75
2022-09-13T17:27:44.755Z,3.25
2022-09-13T17:30:37.996Z,3.50
2022-09-13T17:33:30.765Z,3.58
2022-09-13T17:36:23.481Z,3.70
2022-09-13T17:39:18.511Z,3.63
2022-09-13T17:42:12.368Z,3.10
2022-09-13T17:45:06.727Z,3.60
2022-09-13T17:48:00.001Z,3.20
2022-09-13T17:50:53.186Z,3.15
2022-09-13T17:53:48.547Z,3.45
2022-09-13T17:56:44.830Z,3.58
2022-09-13T17:59:37.693Z,3.33
2022-09-13T18:02:30.867Z,3.67
2022-09-13T18:05:24.906Z,2.88
2022-09-13T18:08:17.698Z,3.58
2022-09-13T18:11:14.142Z,3.30
2022-09-13T18:14:13.216Z,3.90
2022-09-13T18:17:12.880Z,3.70
2022-09-13T18:20:06.297Z,3.45
2022-09-13T18:22:59.798Z,4.00
2022-09-13T18:26:02.970Z,3.85
2022-09-13T18:29:01.756Z,3.45
2022-09-13T18:31:56.473Z,3.72
2022-09-13T18:34:49.961Z,3.25
2022-09-13T18:37:42.650Z,3.90
2022-09-13T18:40:36.293Z,3.80
2022-09-13T18:43:29.964Z,3.92
2022-09-13T18:46:24.964Z,4.00
2022-09-13T18:49:19.674Z,3.70
2022-09-13T18:52:12.800Z,4.30
2022-09-13T18:55:06.401Z,3.38
2022-09-13T18:58:00.105Z,4.55
2022-09-13T19:01:02.058Z,4.43
2022-09-13T19:03:56.915Z,4.07
2022-09-13T19:06:52.693Z,4.18
2022-09-13T19:09:46.173Z,4.50
2022-09-13T19:12:38.972Z,4.53
2022-09-13T19:15:31.906Z,4.05
2022-09-13T19:18:24.911Z,5.13
2022-09-13T19:21:19.913Z,4.53
2022-09-13T19:24:18.026Z,4.72
2022-09-13T19:27:13.318Z,4.45
2022-09-13T19:30:07.980Z,3.83
2022-09-13T19:33:00.965Z,4.25
2022-09-13T19:35:53.720Z,4.32
2022-09-13T19:38:47.139Z,4.57
2022-09-13T19:41:41.970Z,4.80
2022-09-13T19:44:35.144Z,4.90
2022-09-13T19:48:25.759Z,4.57
2022-09-13T19:50:41.102Z,4.63
2022-09-13T19:53:55.501Z,4.95
2022-09-13T19:56:49.992Z,4.57
2022-09-13T19:59:42.697Z,4.18
2022-09-13T20:02:36.275Z,4.72
2022-09-13T20:05:29.715Z,4.40
2022-09-13T20:08:25.027Z,4.15
2022-09-13T20:11:18.683Z,4.07
2022-09-13T20:14:14.909Z,4.88
2022-09-13T20:17:08.108Z,4.53
2022-09-13T20:20:00.645Z,4.68
2022-09-13T20:22:53.975Z,4.38
2022-09-13T20:25:47.353Z,4.38
2022-09-13T20:28:41.053Z,3.78
2022-09-13T20:31:37.345Z,4.43
2022-09-13T20:34:30.996Z,4.47
2022-09-13T20:37:24.087Z,5.03
2022-09-13T20:40:17.354Z,4.97
2022-09-13T20:43:11.329Z,4.53
2022-09-13T20:46:05.780Z,4.40
2022-09-13T20:49:01.433Z,4.70
2022-09-13T20:51:55.021Z,4.00
2022-09-13T20:54:48.739Z,4.85
2022-09-13T20:57:42.661Z,5.50
2022-09-13T21:00:36.309Z,4.25
2022-09-13T21:03:30.248Z,4.32
2022-09-13T21:06:27.203Z,4.72
2022-09-13T21:09:18.937Z,4.50
2022-09-13T21:12:12.197Z,4.70
2022-09-13T21:15:06.824Z,5.13
2022-09-13T21:18:00.166Z,4.63
2022-09-13T21:20:56.676Z,4.43
2022-09-13T21:23:51.951Z,4.43
2022-09-13T21:26:44.914Z,4.78
2022-09-13T21:29:37.840Z,4.57
2022-09-13T21:32:31.153Z,4.68
2022-09-13T21:35:23.837Z,4.25
2022-09-13T21:38:16.881Z,4.40
2022-09-13T21:41:13.485Z,4.53
2022-09-13T21:44:07.879Z,4.07
2022-09-13T21:47:01.158Z,4.05
2022-09-13T21:49:54.251Z,4.45
2022-09-13T21:52:46.744Z,4.72
2022-09-13T21:55:40.432Z,5.32
2022-09-13T21:58:36.813Z,4.82
2022-09-13T22:01:32.361Z,4.60
2022-09-13T22:04:27.091Z,4.32
2022-09-13T22:07:19.759Z,4.07
2022-09-13T22:10:13.404Z,4.50
2022-09-13T22:13:08.020Z,4.28
2022-09-13T22:16:07.073Z,4.63
2022-09-13T22:19:08.708Z,4.03
2022-09-13T22:22:02.270Z,4.00
2022-09-13T22:24:55.270Z,4.65
2022-09-13T22:27:47.856Z,4.10
2022-09-13T22:30:40.706Z,4.00
2022-09-13T22:33:35.393Z,4.13
2022-09-13T22:36:29.251Z,4.13
2022-09-13T22:39:22.419Z,4.50
2022-09-13T22:42:15.783Z,4.50
2022-09-13T22:45:09.679Z,4.32
2022-09-13T22:48:03.363Z,4.28
2022-09-13T22:50:57.431Z,3.75
2022-09-13T22:53:53.589Z,4.22
2022-09-13T22:56:48.361Z,4.07
2022-09-13T22:59:41.345Z,4.00
2022-09-13T23:02:34.330Z,4.43
2022-09-13T23:05:26.637Z,4.43
2022-09-13T23:08:21.982Z,4.05
2022-09-13T23:11:18.216Z,3.78
2022-09-13T23:14:13.372Z,4.78
2022-09-13T23:17:06.467Z,4.40
2022-09-13T23:20:00.097Z,4.10
2022-09-13T23:22:53.013Z,3.80
2022-09-13T23:25:47.737Z,4.20
2022-09-13T23:28:41.663Z,4.18
2022-09-13T23:31:38.720Z,4.47
2022-09-13T23:34:31.965Z,4.22
2022-09-13T23:37:24.858Z,3.75
2022-09-13T23:40:18.301Z,3.55
2022-09-13T23:43:12.595Z,4.15
2022-09-13T23:46:06.955Z,4.00
2022-09-13T23:49:00.185Z,4.07
2022-09-13T23:51:52.818Z,4.05
2022-09-13T23:54:46.432Z,4.38
2022-09-13T23:57:40.162Z,4.22
